New Castle, IN (47362)

4:28 AM EST on January 20, 2017 (GMT -0500)
Downtown New Castle | | Change Station

Elev 1060 ft 39.93 °N, 85.37 °W | Updated 1 minute ago

Rain
Rain
44.1 °F
Feels Like 43 °F
N
3.1
Wind Variable Wind from East
Gusts 3.8 mph

Today
High -- | Low -- °F
--% Chance of Precip.
Yesterday
High -- | Low -- °F
Precip. -- in
Pressure 29.60 in
Visibility 2.5 miles
Clouds Overcast 500 ft
Windchill 43 °F
Dew Point 44 °F
Humidity 99%
Rainfall 0.37 in
Snow Depth Not available.
7:58 AM 5:46 PM
Last Quarter, 46% visible
METAR KMIE 200853Z AUTO 09005KT 2 1/2SM -RA BR OVC005 06/06 A2960 RMK AO2 SLP022 P0012 60032 T00610056 56025
Pressure 29.60 in
Visibility 2.5 miles
Clouds Overcast 500 ft
Windchill 43 °F
Dew Point 44 °F
Humidity 99%
Rainfall 0.37 in
Snow Depth Not available.
7:58 AM 5:46 PM
Last Quarter, 46% visible
METAR KMIE 200853Z AUTO 09005KT 2 1/2SM -RA BR OVC005 06/06 A2960 RMK AO2 SLP022 P0012 60032 T00610056 56025

Get Your Daily Forecast Email!

Thanks for signing up!

Be on the lookout for a verification email in your inbox.

You'll start receiving the daily forecast at 8 AM.

×

10-Day Weather Forecast

Almanac

Astronomy

Jan. 20, 2017 Rise Set
Actual Time
Civil Twilight
Nautical Twilight
Astronomical Twilight
Moon
Length of Visible Light
Length of Day
Tomorrow will be .
, % of the Moon is Illuminated

Today's Extremes

State Highs State Lows

Community

WunderPhotos

Upload Photos

1,962,540 photos uploaded!

WunderBlog® & News

Nearby

Air Quality

  Air Quality AQ Index Pollutant
Not available.

Snow Depth

Station Depth Elevation

Earthquake Activity

City Distance Mag. Time & Date
Minimum magnitude displayed is 2.5.

Coastal Water Temperatures

Place Temperature

Stations

Nearby Weather Stations

Station Location Temp. Windchill Dew Point Humidity Wind Precip. Elev Updated Type
                   

Watches & Warnings

There are currently no watches in effect.